Tiempo atmosférico en la estación meteorológica de Lalastra, Araba/Álava (910 m.)



Fecha
DESCASC
Temp. máxima en grados centígrados (hora)
DESCASC
Temp. mínima en grados centígrados (hora)
DESCASC
Temp. media en grados centígrados
DESCASC
Racha de viento máxima en m/sg (hora)
DESCASC
Velocidad máxima media en intervalos de 10 minutos(hora)
DESCASC
Precipitaciones diarias en mm
DESCASC
Precipitaciones de 00:00 a 06:00 en mm
DESCASC
Precipitaciones de 06:00 a 12:00 en mm
DESCASC
Precipitaciones de 12:00 a 18:00 en mm
DESCASC
Precipitaciones de 18:00 a 24:00 en mm
DESCASC
27-12-2020 3.8 (21:20) -1.4 (-00:0) 1.2 27.22 (20:20) 11.67 (13:50) 10 0 0 0.4 9.6
20-01-2021 8 (15:20) 3.1 (00:00) 5.5 19.72 (14:30) 10.28 (14:30) 3.2 0 0 0.6 2.6
28-12-2020 3.3 (16:20) -0.8 (-00:0) 1.2 16.39 (02:40) 8.06 (04:10) 12.4 5.8 2 3.6 1
11-01-2021 0.4 (13:40) -2 (-00:0) -0.8 13.89 (00:40) 7.78 (00:50) 1.8 0 0 1.8 0
29-12-2020 3.3 (15:30) -0.5 (-00:0) 1.4 12.5 (16:30) 7.22 (16:40) 3.6 0.4 1 2.2 0
21-01-2021 8.9 (19:50) 6.3 (00:00) 7.6 18.61 (11:10) 6.94 (11:10) 0.2 0 0 0.2 0
01-01-2021 1.5 (13:20) -2.5 (-00:0) -0.5 11.11 (15:20) 6.67 (15:30) 1.8 0 0.8 1 0
31-12-2020 3.1 (15:30) 0 (00:00) 1.5 12.78 (04:10) 6.11 (04:30) 10 0 2.2 7.2 0.6
19-01-2021 9 (15:40) -1.5 (-00:0) 3.8 13.33 (19:00) 6.11 (18:50) 0 0 0 0 0
10-01-2021 -0.5 (15:00) -2.5 (00:00) -1.5 12.22 (10:50) 6.11 (10:10) 0.4 0 0 0.4 0
23-12-2020 11.3 (01:20) 4.2 (00:00) 7.8 16.39 (10:50) 5.83 (10:40) 2.2 0 0 0 2.2
25-12-2020 2.3 (00:30) -0.6 (-00:0) 0.8 12.5 (14:40) 5.83 (13:20) 6.2 2.2 0 3.6 0.4
24-12-2020 5.6 (14:00) -1 (-00:0) 2.3 12.5 (23:20) 5.56 (23:30) 5 0 0 0 5
30-12-2020 1.6 (14:00) -0.6 (-00:0) 0.5 10 (12:00) 5.28 (00:30) 8 0 0.2 7.4 0.4
26-12-2020 3 (14:30) -1.2 (-00:0) 0.9 8.33 (07:30) 4.17 (07:30) 8.4 0 1.4 6.8 0.2
09-01-2021 -2.5 (15:10) -3.6 (-00:0) -3 8.33 (14:50) 3.06 (00:50) 0 0 0 0 0
08-01-2021 -0.1 (13:50) -4.7 (-00:0) -2.4 7.22 (03:10) 2.78 (22:30) 1.4 0 0 1.4 0
17-01-2021 9.6 (15:20) -2.4 (-00:0) 3.6 5 (14:00) 2.78 (11:50) 0.4 0 0 0 0.4
15-01-2021 5.9 (14:50) 1 (00:00) 3.5 6.39 (13:10) 2.78 (11:20) 0.4 0 0.4 0 0
07-01-2021 1.5 (15:50) -10.7 (-00:0) -4.6 7.22 (21:00) 2.5 (21:00) 3.8 0 0 3.8 0
12-01-2021 4 (16:40) -5.1 (-00:0) -0.5 5.83 (02:50) 2.5 (02:20) 9.4 0 0.8 8.6 0
16-01-2021 8.5 (15:50) -4.7 (-00:0) 1.9 4.72 (00:20) 2.22 (01:20) 0 0 0 0 0
18-01-2021 8.2 (16:40) -0.5 (-00:0) 3.8 4.44 (13:00) 1.94 (13:00) 0 0 0 0 0
14-01-2021 3.9 (15:50) -5.2 (02:00) -0.6 3.61 (16:20) 1.94 (16:20) 0.6 0 0 0 0.6
06-01-2021 2.3 (15:30) -7.7 (-00:0) -2.7 3.61 (13:50) 1.67 (14:00) 10.8 0 0.4 10.4 0
13-01-2021 5.8 (15:10) -6 (-00:0) -0.1 2.78 (09:40) 1.11 (13:30) 3 0 0.6 2.4 0
03-01-2021 -- (--) -- (--) -- -- (--) -- (--) -- -- -- -- --
02-01-2021 -- (--) -- (--) -- -- (--) -- (--) -- -- -- -- --
04-01-2021 -- (--) -- (--) -- -- (--) -- (--) -- -- -- -- --
05-01-2021 -- (--) -- (--) -- -- (--) -- (--) -- -- -- -- 0.2

Gráficas

Temp. máximas Temp. mínimas Temp. medias Precipitaciones Rachas de viento máximas Velocidades máximas media en intervalos de 10 minutos

Datos horarios

Fecha y hora oficial Temperatura (ºC) Velocidad del viento (km/h) Dirección del viento Racha (km/h) Dirección de racha Precipitación (mm) Presión (hPa) Tendencia (hPa) Humedad (%)
2021-01-21 23:00:00 8.3 9 Sur 41 Oeste 0 -- -- 78
2021-01-21 22:00:00 8.2 12 Oeste 44 Oeste 0 -- -- 77
2021-01-21 21:00:00 8.6 18 Oeste 54 Oeste 0 -- -- 78
2021-01-21 20:00:00 8.9 13 Sudoeste 40 Oeste 0 -- -- 79
2021-01-21 19:00:00 8.8 12 Oeste 46 Noroeste 0 -- -- 81
2021-01-21 18:00:00 8.8 14 Oeste 49 Noroeste 0 -- -- 81
2021-01-21 17:00:00 8.6 15 Oeste 52 Oeste 0 -- -- 84
2021-01-21 16:00:00 7.9 6 Este 44 Noroeste 0.2 -- -- 89
2021-01-21 15:00:00 7.5 16 Sur 58 Sur 0 -- -- 91
2021-01-21 14:00:00 7.8 15 Sur 57 Sur 0 -- -- 85
2021-01-21 13:00:00 7.4 10 Sudoeste 41 Sur 0 -- -- 85
2021-01-21 12:00:00 6.6 18 Sur 67 Sudoeste 0 -- -- 90
2021-01-21 11:00:00 7.3 24 Sudoeste 64 Sur 0 -- -- 84
2021-01-21 10:00:00 6.5 21 Oeste 55 Oeste 0 -- -- 87
2021-01-21 09:00:00 6.4 20 Sudoeste 49 Sudoeste 0 -- -- 89
2021-01-21 08:00:00 6.4 13 Sudoeste 38 Sur 0 -- -- 90
2021-01-21 07:00:00 6.4 10 Sudoeste 34 Oeste 0 -- -- 90
2021-01-21 06:00:00 6.5 13 Sudoeste 38 Sudoeste 0 -- -- 90
2021-01-21 05:00:00 6.5 10 Sur 27 Sur 0 -- -- 91
2021-01-21 04:00:00 6.8 6 Sur 35 Noroeste 0 -- -- 90
2021-01-21 03:00:00 6.6 10 Oeste 27 Sudoeste 0 -- -- 90
2021-01-21 02:00:00 6.4 10 Oeste 27 Sudoeste 0 -- -- 91
2021-01-21 01:00:00 6.7 3 Oeste 25 Noroeste 0 -- -- 90
2021-01-21 00:00:00 6.8 8 Oeste 37 Sudoeste 0 -- -- 89
2021-01-20 23:00:00 6.7 9 Sudoeste 35 Sur 0 -- -- 91
2021-01-20 22:00:00 6.6 8 Sudoeste 45 Sur 0 -- -- 91
2021-01-20 21:00:00 6.6 21 Sur 59 Sur 0.2 -- -- 92
2021-01-20 20:00:00 6.3 23 Sur 51 Sur 0.4 -- -- 94
2021-01-20 19:00:00 6 18 Sur 43 Sudoeste 2 -- -- 94
2021-01-20 18:00:00 6.1 19 Sur 49 Sur 0.6 -- -- 91
2021-01-20 17:00:00 7.7 21 Sur 49 Sur 0 -- -- 77
2021-01-20 16:00:00 7.9 24 Sur 64 Sur 0 -- -- 74
2021-01-20 15:00:00 7.9 24 Sudoeste 71 Sudoeste 0 -- -- 72
2021-01-20 14:00:00 7.6 26 Sudoeste 55 Sur 0 -- -- 71
2021-01-20 13:00:00 7.3 28 Sudoeste 59 Sur 0 -- -- 68
2021-01-20 12:00:00 7 24 Sudoeste 50 Sur 0 -- -- 70
2021-01-20 11:00:00 5.8 22 Sur 48 Sur 0 -- -- 76
2021-01-20 10:00:00 5.1 20 Sudoeste 55 Sudoeste 0 -- -- 76
2021-01-20 09:00:00 4.1 20 Sudoeste 53 Sudoeste 0 -- -- 82
2021-01-20 08:00:00 4.1 28 Sudoeste 54 Sudoeste 0 -- -- 74
2021-01-20 07:00:00 3.5 26 Sudoeste 57 Sudoeste 0 -- -- 77
2021-01-20 06:00:00 3.4 23 Sudoeste 53 Sudoeste 0 -- -- 80
2021-01-20 05:00:00 3.6 17 Sur 53 Sudoeste 0 -- -- 79
2021-01-20 04:00:00 3.3 18 Sur 44 Sudoeste 0 -- -- 78
2021-01-20 03:00:00 3.1 17 Sudoeste 37 Sudoeste 0 -- -- 79
2021-01-20 02:00:00 3.7 17 Sur 39 Sudoeste 0 -- -- 75
2021-01-20 01:00:00 4.4 16 Sudoeste 34 Sur 0 -- -- 70
2021-01-20 00:00:00 4.7 15 Sudoeste 37 Sudoeste 0 -- -- 67
2021-01-19 23:00:00 5.5 18 Sur 36 Sur 0 -- -- 61
2021-01-19 22:00:00 5 15 Sudoeste 28 Sudoeste 0 -- -- 66
2021-01-19 21:00:00 5.6 11 Sudoeste 32 Sudoeste 0 -- -- 67
2021-01-19 20:00:00 5.9 14 Sudoeste 42 Sur 0 -- -- 62
2021-01-19 19:00:00 6 15 Sur 48 Oeste 0 -- -- 62
2021-01-19 18:00:00 6.2 12 Sudoeste 36 Sudoeste 0 -- -- 68
2021-01-19 17:00:00 6.9 14 Sudoeste 32 Oeste 0 -- -- 63
2021-01-19 16:00:00 8.7 15 Sudoeste 32 Sudoeste 0 -- -- 61
2021-01-19 15:00:00 8.7 19 Sudoeste 39 Sudoeste 0 -- -- 61
2021-01-19 14:00:00 8 16 Sudoeste 35 Sudoeste 0 -- -- 67
2021-01-19 13:00:00 7.3 8 Sudoeste 32 Sudoeste 0 -- -- 70
2021-01-19 12:00:00 6.2 19 Sudoeste 37 Sudoeste 0 -- -- 75
2021-01-19 11:00:00 5.8 13 Sudoeste 38 Sudoeste 0 -- -- 80
2021-01-19 10:00:00 3.8 18 Sudoeste 39 Sudoeste 0 -- -- 87
2021-01-19 09:00:00 3.5 12 Sudoeste 41 Sur 0 -- -- 89
2021-01-19 08:00:00 2.9 15 Sudoeste 33 Sudoeste 0 -- -- 93
2021-01-19 07:00:00 3.2 19 Sudoeste 42 Sudoeste 0 -- -- 91
2021-01-19 06:00:00 3 12 Sudoeste 28 Sudoeste 0 -- -- 90
2021-01-19 05:00:00 2.6 13 Sudoeste 25 Sudoeste 0 -- -- 93
2021-01-19 04:00:00 1.5 8 Sudoeste 19 Sudoeste 0 -- -- 99
2021-01-19 03:00:00 -0.4 0 Calma 6 Este 0 -- -- 99
2021-01-19 02:00:00 -1.5 0 Calma 4 Este 0 -- -- 98
2021-01-19 01:00:00 -0.8 0 Calma 3 Oeste 0 -- -- 98
2021-01-19 00:00:00 -0.4 0 Calma 3 Norte 0 -- -- 98
2021-01-18 23:00:00 -0.5 0 Calma 4 Norte 0 -- -- 98
2021-01-18 22:00:00 -0.2 0 Calma 4 Este 0 -- -- 96
2021-01-18 21:00:00 0.5 0 Calma 4 Nordeste 0 -- -- 95
2021-01-18 20:00:00 1.1 0 Calma 4 Norte 0 -- -- 93
2021-01-18 19:00:00 2.4 0 Calma 4 Nordeste 0 -- -- 91
2021-01-18 18:00:00 4.6 0 Calma 5 Oeste 0 -- -- 83
2021-01-18 17:00:00 8 0 Calma 8 Oeste 0 -- -- 76
2021-01-18 16:00:00 7.6 0 Calma 8 Sudoeste 0 -- -- 82
2021-01-18 15:00:00 7.3 3 Sur 9 Noroeste 0 -- -- 83
2021-01-18 14:00:00 7 0 Calma 10 Noroeste 0 -- -- 86
2021-01-18 13:00:00 6 7 Noroeste 16 Oeste 0 -- -- 90
2021-01-18 12:00:00 5.3 5 Oeste 8 Oeste 0 -- -- 99
2021-01-18 11:00:00 3.4 0 Calma 3 Sudoeste 0 -- -- 100
2021-01-18 10:00:00 2.5 0 Calma 4 Oeste 0 -- -- 100
2021-01-18 09:00:00 1.9 2 Este 5 Nordeste 0 -- -- 100
2021-01-18 08:00:00 2.1 0 Calma 6 Nordeste 0 -- -- 99
2021-01-18 07:00:00 2 3 Nordeste 5 Nordeste 0 -- -- 100
2021-01-18 06:00:00 1.8 2 Oeste 5 Oeste 0 -- -- 99
2021-01-18 05:00:00 1.5 0 Calma 5 Este 0 -- -- 99
2021-01-18 04:00:00 1.5 0 Calma 6 Este 0 -- -- 100
2021-01-18 03:00:00 1.2 3 Este 6 Nordeste 0 -- -- 100
2021-01-18 02:00:00 1.2 0 Calma 5 Sudeste 0 -- -- 98
2021-01-18 01:00:00 1.6 3 Sudeste 5 Este 0 -- -- 98
2021-01-18 00:00:00 2.2 2 Nordeste 5 Nordeste 0 -- -- 98
2021-01-17 23:00:00 2.5 0 Calma 4 Este 0.4 -- -- 98
2021-01-17 22:00:00 2.9 0 Calma 5 Oeste 0 -- -- 97
2021-01-17 21:00:00 3.6 2 Nordeste 9 Noroeste 0 -- -- 97
2021-01-17 20:00:00 3.2 2 Norte 5 Norte 0 -- -- 93
2021-01-17 19:00:00 4 0 Calma 6 Este 0 -- -- 91
2021-01-17 18:00:00 5.4 3 Este 8 Norte 0 -- -- 89
2021-01-17 17:00:00 6.6 2 Norte 9 Noroeste 0 -- -- 87
2021-01-17 16:00:00 8.2 2 Noroeste 11 Noroeste 0 -- -- 80
2021-01-17 15:00:00 9.1 5 Oeste 13 Noroeste 0 -- -- 77
2021-01-17 14:00:00 8.4 8 Noroeste 18 Noroeste 0 -- -- 79
2021-01-17 13:00:00 6.6 0 Calma 15 Oeste 0 -- -- 82
2021-01-17 12:00:00 6.3 7 Noroeste 18 Noroeste 0 -- -- 83
2021-01-17 11:00:00 3.6 4 Norte 18 Norte 0 -- -- 93
2021-01-17 10:00:00 1.2 4 Noroeste 10 Noroeste 0 -- -- 95
2021-01-17 09:00:00 0.1 2 Norte 17 Oeste 0 -- -- 79
2021-01-17 08:00:00 0.1 2 Sur 12 Oeste 0 -- -- 86
2021-01-17 07:00:00 -2.3 3 Este 6 Este 0 -- -- 88
2021-01-17 06:00:00 -2.2 0 Calma 4 Nordeste 0 -- -- 84
2021-01-17 05:00:00 -1.7 0 Calma 4 Oeste 0 -- -- 81
2021-01-17 04:00:00 -0.6 0 Calma 6 Norte 0 -- -- 78
2021-01-17 03:00:00 0.3 4 Nordeste 9 Norte 0 -- -- 74
2021-01-17 02:00:00 -0.8 0 Calma 4 Oeste 0 -- -- 68
2021-01-17 01:00:00 -1 0 Calma 5 Noroeste 0 -- -- 70
2021-01-17 00:00:00 -1.2 0 Calma 5 Este 0 -- -- 79
2021-01-16 23:00:00 -1.1 2 Sudeste 10 Noroeste 0 -- -- 82
2021-01-16 22:00:00 -0.2 0 Calma 5 Este 0 -- -- 80
2021-01-16 21:00:00 0.6 0 Calma 4 Oeste 0 -- -- 78
2021-01-16 20:00:00 1.8 0 Calma 3 Este 0 -- -- 77
2021-01-16 19:00:00 2.6 0 Calma 4 Nordeste 0 -- -- 76
2021-01-16 18:00:00 4.2 0 Calma 4 Norte 0 -- -- 68
2021-01-16 17:00:00 7.9 0 Calma 5 Norte 0 -- -- 47
2021-01-16 16:00:00 8.5 0 Calma 5 Noroeste 0 -- -- 47
2021-01-16 15:00:00 8.1 2 Sudoeste 4 Sudoeste 0 -- -- 61
2021-01-16 14:00:00 6.4 3 Oeste 5 Oeste 0 -- -- 69
2021-01-16 13:00:00 4.6 0 Calma 4 Oeste 0 -- -- 79
2021-01-16 12:00:00 2.4 0 Calma 2 Oeste 0 -- -- 89
2021-01-16 11:00:00 0.2 0 Calma -- -- 0 -- -- 96
2021-01-16 10:00:00 -4.2 0 Calma 0 Calma 0 -- -- 97
2021-01-16 09:00:00 -4.7 0 Calma 0 Calma 0 -- -- 95
2021-01-16 08:00:00 -4.1 0 Calma 2 Este 0 -- -- 96
2021-01-16 07:00:00 -3.5 0 Calma 4 Nordeste 0 -- -- 95
2021-01-16 06:00:00 -2.8 0 Calma 4 Norte 0 -- -- 95
2021-01-16 05:00:00 -2 0 Calma 3 Sudeste 0 -- -- 95
2021-01-16 04:00:00 -1 2 Nordeste 5 Nordeste 0 -- -- 93
2021-01-16 03:00:00 0 0 Calma 3 Oeste 0 -- -- 92
2021-01-16 02:00:00 1.1 2 Noroeste 17 Norte 0 -- -- 89
2021-01-16 01:00:00 1.8 4 Noroeste 17 Norte 0 -- -- 88
2021-01-16 00:00:00 1.8 6 Norte 17 Nordeste 0 -- -- 89
2021-01-15 23:00:00 1.5 4 Noroeste 15 Noroeste 0 -- -- 91
2021-01-15 22:00:00 2 4 Noroeste 16 Norte 0 -- -- 90
2021-01-15 21:00:00 2.1 6 Norte 15 Norte 0 -- -- 93
2021-01-15 20:00:00 2.3 0 Calma 14 Noroeste 0 -- -- 90
2021-01-15 19:00:00 2.6 5 Norte 13 Norte 0 -- -- 91
2021-01-15 18:00:00 3.2 3 Nordeste 12 Norte 0 -- -- 87
2021-01-15 17:00:00 4.2 4 Norte 14 Norte 0 -- -- 78
2021-01-15 16:00:00 5 4 Noroeste 19 Norte 0 -- -- 76
2021-01-15 15:00:00 5.6 8 Noroeste 17 Oeste 0 -- -- 74
2021-01-15 14:00:00 4.6 9 Norte 23 Noroeste 0 -- -- 78
2021-01-15 13:00:00 4.3 7 Norte 18 Norte 0 -- -- 81
2021-01-15 12:00:00 4.2 9 Norte 22 Norte 0 -- -- 83
2021-01-15 11:00:00 2.8 9 Norte 17 Noroeste 0 -- -- 93
2021-01-15 10:00:00 2.2 5 Norte 15 Norte 0.2 -- -- 97
2021-01-15 09:00:00 1.8 5 Norte 12 Norte 0.2 -- -- 96
2021-01-15 08:00:00 1.7 5 Norte 10 Norte 0 -- -- 95
2021-01-15 07:00:00 1.1 3 Noroeste 12 Noroeste 0 -- -- 94
2021-01-15 06:00:00 2 4 Norte 19 Norte 0 -- -- 91
2021-01-15 05:00:00 1.5 4 Noroeste 10 Norte 0 -- -- 94
2021-01-15 04:00:00 1.7 4 Noroeste 19 Nordeste 0 -- -- 91
2021-01-15 03:00:00 1.5 5 Noroeste 14 Noroeste 0 -- -- 96
2021-01-15 02:00:00 1.4 3 Sudeste 16 Sur 0 -- -- 97
2021-01-15 01:00:00 1.9 5 Noroeste 10 Noroeste 0 -- -- 98
2021-01-15 00:00:00 2.8 2 Sudoeste 10 Sudoeste 0 -- -- 98
2021-01-14 23:00:00 2.8 3 Oeste 13 Norte 0 -- -- 99
2021-01-14 22:00:00 3.4 5 Noroeste 10 Noroeste 0.2 -- -- 99
2021-01-14 21:00:00 3.3 0 Calma 11 Norte 0 -- -- 99
2021-01-14 20:00:00 3.3 4 Norte 7 Norte 0.2 -- -- 98
2021-01-14 19:00:00 3 0 Calma 9 Norte 0.2 -- -- 97
2021-01-14 18:00:00 3.4 0 Calma 10 Noroeste 0 -- -- 96
2021-01-14 17:00:00 3.4 7 Noroeste 13 Norte 0 -- -- 94
2021-01-14 16:00:00 3.8 4 Nordeste 9 Norte 0 -- -- 90
2021-01-14 15:00:00 3.8 0 Calma 5 Nordeste 0 -- -- 83
2021-01-14 14:00:00 3 0 Calma 8 Sudoeste 0 -- -- 83
2021-01-14 13:00:00 2.3 5 Sudoeste 12 Sudoeste 0 -- -- 86
2021-01-14 12:00:00 0.6 0 Calma 4 Nordeste 0 -- -- 97
2021-01-14 11:00:00 -1 0 Calma 3 Sudoeste 0 -- -- 99
2021-01-14 10:00:00 -2.2 0 Calma 3 Nordeste 0 -- -- 99
2021-01-14 09:00:00 -2.7 0 Calma 5 Norte 0 -- -- 99
2021-01-14 08:00:00 -3.2 0 Calma 3 Este 0 -- -- 98
2021-01-14 07:00:00 -3.1 0 Calma 3 Nordeste 0 -- -- 98
2021-01-14 06:00:00 -2.9 0 Calma 3 Sudeste 0 -- -- 98
2021-01-14 05:00:00 -3.1 0 Calma 3 Norte 0 -- -- 99
2021-01-14 04:00:00 -3.8 0 Calma 3 Este 0 -- -- 98
2021-01-14 03:00:00 -4.9 0 Calma 2 Este 0 -- -- 97
2021-01-14 02:00:00 -5.2 0 Calma 2 Nordeste 0 -- -- 95
2021-01-14 01:00:00 -4.7 0 Calma 3 Nordeste 0 -- -- 95
2021-01-14 00:00:00 -4.1 0 Calma 4 Nordeste 0 -- -- 95
2021-01-13 23:00:00 -3.5 0 Calma 3 Nordeste 0 -- -- 95
2021-01-13 22:00:00 -2.6 0 Calma 3 Nordeste 0 -- -- 95
2021-01-13 21:00:00 -2.2 0 Calma 3 Nordeste 0 -- -- 95
2021-01-13 20:00:00 -1.7 0 Calma 3 Norte 0 -- -- 93
2021-01-13 19:00:00 -0.7 0 Calma 3 Nordeste 0 -- -- 90
2021-01-13 18:00:00 1.4 2 Este 3 Este 0 -- -- 84
2021-01-13 17:00:00 5.5 0 Calma 5 Oeste 0 -- -- 75
2021-01-13 16:00:00 5.5 4 Oeste 6 Oeste 0 -- -- 77
2021-01-13 15:00:00 5.5 0 Calma 7 Sudeste 0 -- -- 73
2021-01-13 14:00:00 5.6 3 Nordeste 9 Este 1 -- -- 76
2021-01-13 13:00:00 4.6 3 Sur 9 Norte 1.4 -- -- 82
2021-01-13 12:00:00 2.3 0 Calma 4 Oeste 0.6 -- -- 96
2021-01-13 11:00:00 0.9 0 Calma 5 Oeste 0 -- -- 99
2021-01-13 10:00:00 0.2 0 Calma 10 Norte 0 -- -- 100
2021-01-13 09:00:00 -1.3 0 Calma 7 Norte 0 -- -- 99
2021-01-13 08:00:00 -2.2 0 Calma 4 Nordeste 0 -- -- 99
2021-01-13 07:00:00 -2.9 0 Calma 4 Nordeste 0 -- -- 98
2021-01-13 06:00:00 -3.4 0 Calma 4 Nordeste 0 -- -- 98
2021-01-13 05:00:00 -4.8 2 Este 4 Nordeste 0 -- -- 98
2021-01-13 04:00:00 -5.8 0 Calma 5 Nordeste 0 -- -- 96
2021-01-13 03:00:00 -5.9 0 Calma 4 Nordeste 0 -- -- 96
2021-01-13 02:00:00 -5.9 0 Calma 2 Este 0 -- -- 96
2021-01-13 01:00:00 -5.8 0 Calma 2 Noroeste 0 -- -- 94
2021-01-13 00:00:00 -5.1 0 Calma 2 Este 0 -- -- 95
2021-01-12 23:00:00 -4.5 0 Calma 4 Este 0 -- -- 94
2021-01-12 22:00:00 -4 0 Calma 4 Nordeste 0 -- -- 95
2021-01-12 21:00:00 -3.5 0 Calma 3 Nordeste 0 -- -- 92
2021-01-12 20:00:00 -2.6 3 Nordeste 5 Nordeste 0 -- -- 92
2021-01-12 19:00:00 -1.4 0 Calma 4 Nordeste 0 -- -- 91
2021-01-12 18:00:00 0.5 0 Calma 5 Nordeste 0.4 -- -- 85
2021-01-12 17:00:00 3.7 0 Calma 6 Oeste 1.2 -- -- 76
2021-01-12 16:00:00 3.6 3 Oeste 8 Noroeste 0.8 -- -- 79
2021-01-12 15:00:00 3.2 3 Noroeste 12 Noroeste 1.2 -- -- 78
2021-01-12 14:00:00 3.3 5 Noroeste 10 Noroeste 3.2 -- -- 79
2021-01-12 13:00:00 2.5 4 Noroeste 9 Noroeste 1.8 -- -- 81
2021-01-12 12:00:00 2.1 5 Oeste 9 Oeste 0.8 -- -- 82
2021-01-12 11:00:00 1.1 0 Calma 4 Oeste 0 -- -- 88
2021-01-12 10:00:00 0 0 Calma 3 Norte 0 -- -- 92
2021-01-12 09:00:00 -0.6 0 Calma 4 Norte 0 -- -- 92
2021-01-12 08:00:00 -0.5 0 Calma 11 Nordeste 0 -- -- 91
2021-01-12 07:00:00 -0.4 0 Calma 14 Norte 0 -- -- 89
2021-01-12 06:00:00 -0.2 5 Norte 18 Norte 0 -- -- 89
2021-01-12 05:00:00 -0.1 6 Norte 19 Noroeste 0 -- -- 90
2021-01-12 04:00:00 -0.2 7 Noroeste 16 Noroeste 0 -- -- 91
2021-01-12 03:00:00 -0.4 6 Noroeste 21 Noroeste 0 -- -- 89
2021-01-12 02:00:00 -0.3 6 Norte 21 Norte 0 -- -- 89
2021-01-12 01:00:00 -0.6 5 Norte 12 Norte 0 -- -- 91
2021-01-12 00:00:00 -0.8 2 Norte 6 Noroeste 0 -- -- 90
2021-01-11 23:00:00 -0.7 3 Noroeste 9 Nordeste 0 -- -- 89
2021-01-11 22:00:00 -0.6 6 Norte 15 Norte 0 -- -- 89
2021-01-11 21:00:00 -0.8 4 Norte 19 Nordeste 0 -- -- 89
2021-01-11 20:00:00 -0.7 6 Norte 18 Norte 0 -- -- 87
2021-01-11 19:00:00 -0.7 9 Norte 25 Norte 0 -- -- 85
2021-01-11 18:00:00 -0.6 8 Norte 27 Norte 0.2 -- -- 88
2021-01-11 17:00:00 -0.4 11 Norte 31 Norte 0.2 -- -- 91
2021-01-11 16:00:00 -0.1 12 Norte 35 Norte 0.6 -- -- 91
2021-01-11 15:00:00 0.3 10 Noroeste 28 Norte 0.6 -- -- 85
2021-01-11 14:00:00 0.2 11 Noroeste 28 Norte 0.2 -- -- 84
2021-01-11 13:00:00 -0.2 15 Noroeste 34 Noroeste 0 -- -- 86
2021-01-11 12:00:00 -0.8 14 Noroeste 28 Noroeste 0 -- -- 91
2021-01-11 11:00:00 -1.1 16 Norte 33 Noroeste 0 -- -- 91
2021-01-11 10:00:00 -1.3 10 Noroeste 36 Noroeste 0 -- -- 90
2021-01-11 09:00:00 -1.6 17 Noroeste 41 Noroeste 0 -- -- 92
2021-01-11 08:00:00 -1.6 16 Noroeste 44 Oeste 0 -- -- 94
2021-01-11 07:00:00 -1.8 15 Noroeste 45 Noroeste 0 -- -- 92
2021-01-11 06:00:00 -1.8 25 Norte 47 Norte 0 -- -- 90
2021-01-11 05:00:00 -1.5 19 Noroeste 42 Norte 0 -- -- 93
2021-01-11 04:00:00 -1.6 20 Noroeste 42 Norte 0 -- -- 90
2021-01-11 03:00:00 -1.4 22 Norte 44 Noroeste 0 -- -- 91
2021-01-11 02:00:00 -1.6 20 Noroeste 49 Norte 0 -- -- 92
2021-01-11 01:00:00 -1.4 27 Norte 50 Noroeste 0 -- -- 89
2021-01-11 00:00:00 -1.2 17 Norte 36 Norte 0 -- -- 90
2021-01-10 23:00:00 -1.1 19 Norte 38 Norte 0 -- -- 88
2021-01-10 22:00:00 -1.2 17 Norte 37 Noroeste 0 -- -- 90
2021-01-10 21:00:00 -1.3 18 Norte 38 Noroeste 0 -- -- 89
2021-01-10 20:00:00 -1.4 17 Norte 36 Norte 0 -- -- 91
2021-01-10 19:00:00 -1.8 13 Noroeste 36 Noroeste 0 -- -- 92
2021-01-10 18:00:00 -2.1 17 Norte 35 Noroeste 0 -- -- 88
2021-01-10 17:00:00 -1.5 15 Norte 36 Norte 0.4 -- -- 88
2021-01-10 16:00:00 -1.2 18 Norte 37 Norte 0 -- -- 88
2021-01-10 15:00:00 -0.5 15 Norte 34 Norte 0 -- -- 87
2021-01-10 14:00:00 -1 21 Norte 41 Norte 0 -- -- 92
2021-01-10 13:00:00 -1.1 19 Norte 40 Noroeste 0 -- -- 94
2021-01-10 12:00:00 -1.5 19 Noroeste 39 Norte 0 -- -- 97
2021-01-10 11:00:00 -1.5 18 Noroeste 44 Norte 0 -- -- 96
2021-01-10 10:00:00 -1.6 18 Norte 40 Norte 0 -- -- 96
2021-01-10 09:00:00 -1.8 16 Norte 31 Norte 0 -- -- 97
2021-01-10 08:00:00 -1.9 13 Norte 32 Norte 0 -- -- 98
2021-01-10 07:00:00 -1.9 15 Norte 34 Norte 0 -- -- 99
2021-01-10 06:00:00 -1.9 20 Norte 33 Noroeste 0 -- -- 99
2021-01-10 05:00:00 -2 8 Noroeste 43 Noroeste 0 -- -- 99
2021-01-10 04:00:00 -2.1 17 Noroeste 38 Norte 0 -- -- 98
2021-01-10 03:00:00 -2.3 9 Noroeste 24 Noroeste 0 -- -- 98
2021-01-10 02:00:00 -2.3 8 Noroeste 19 Norte 0 -- -- 97
2021-01-10 01:00:00 -2.4 5 Noroeste 22 Norte 0 -- -- 96
2021-01-10 00:00:00 -2.5 4 Sudeste 23 Sudoeste 0 -- -- 95
2021-01-09 23:00:00 -2.8 10 Oeste 24 Sudoeste 0 -- -- 95
2021-01-09 22:00:00 -3.1 6 Sudeste 25 Este 0 -- -- 95
2021-01-09 21:00:00 -3.2 6 Nordeste 22 Este 0 -- -- 94
2021-01-09 20:00:00 -3.4 6 Nordeste 18 Este 0 -- -- 95
2021-01-09 19:00:00 -3.4 5 Este 24 Norte 0 -- -- 95
2021-01-09 18:00:00 -3.1 4 Oeste 15 Oeste 0 -- -- 94
2021-01-09 17:00:00 -2.7 5 Oeste 19 Sudeste 0 -- -- 92
2021-01-09 16:00:00 -2.6 5 Oeste 25 Noroeste 0 -- -- 91
2021-01-09 15:00:00 -2.6 4 Norte 30 Noroeste 0 -- -- 93
2021-01-09 14:00:00 -2.7 5 Sudeste 19 Sudeste 0 -- -- 93
2021-01-09 13:00:00 -2.7 5 Este 26 Noroeste 0 -- -- 93
2021-01-09 12:00:00 -2.8 5 Noroeste 19 Oeste 0 -- -- 94
2021-01-09 11:00:00 -3.2 5 Sudoeste 16 Sur 0 -- -- 94
2021-01-09 10:00:00 -3.3 6 Sudoeste 18 Sur 0 -- -- 94
2021-01-09 09:00:00 -3.5 5 Sur 17 Sudoeste 0 -- -- 94
2021-01-09 08:00:00 -3.6 5 Sur 19 Noroeste 0 -- -- 92
2021-01-09 07:00:00 -3.6 6 Sudoeste 18 Oeste 0 -- -- 91
2021-01-09 06:00:00 -3.5 8 Sudoeste 20 Oeste 0 -- -- 91
2021-01-09 05:00:00 -3.5 4 Sur 21 Este 0 -- -- 90
2021-01-09 04:00:00 -3.4 8 Este 20 Nordeste 0 -- -- 90
2021-01-09 03:00:00 -3.5 10 Nordeste 23 Nordeste 0 -- -- 89
2021-01-09 02:00:00 -3.5 8 Nordeste 26 Nordeste 0 -- -- 89
2021-01-09 01:00:00 -3.5 6 Nordeste 21 Este 0 -- -- 90
2021-01-09 00:00:00 -3.5 6 Nordeste 22 Nordeste 0 -- -- 89
2021-01-08 23:00:00 -3.5 5 Nordeste 23 Este 0 -- -- 89
2021-01-08 22:00:00 -3.7 7 Nordeste 23 Norte 0 -- -- 90
2021-01-08 21:00:00 -3.9 4 Norte 23 Este 0 -- -- 90
2021-01-08 20:00:00 -3.8 4 Nordeste 18 Nordeste 0 -- -- 90
2021-01-08 19:00:00 -3.5 4 Nordeste 23 Nordeste 0 -- -- 90
2021-01-08 18:00:00 -3 3 Nordeste 22 Este 0 -- -- 87
2021-01-08 17:00:00 -1.8 5 Nordeste 24 Sudeste 0.2 -- -- 83
2021-01-08 16:00:00 -0.7 4 Sudoeste 23 Sudeste 0.2 -- -- 77
2021-01-08 15:00:00 -0.3 6 Este 15 Noroeste 0.2 -- -- 76
2021-01-08 14:00:00 -0.7 8 Nordeste 21 Nordeste 0.6 -- -- 77
2021-01-08 13:00:00 -0.9 6 Nordeste 22 Este 0.2 -- -- 78
2021-01-08 12:00:00 -2.2 2 Oeste 22 Este 0 -- -- 84
2021-01-08 11:00:00 -2.5 5 Sudeste 19 Este 0 -- -- 85
2021-01-08 10:00:00 -3.3 3 Este 22 Norte 0 -- -- 87
2021-01-08 09:00:00 -4.1 4 Nordeste 18 Este 0 -- -- 89
2021-01-08 08:00:00 -4.2 5 Nordeste 26 Sudeste 0 -- -- 88
2021-01-08 07:00:00 -4.1 6 Nordeste 22 Nordeste 0 -- -- 88
2021-01-08 06:00:00 -4.2 4 Este 22 Norte 0 -- -- 89
2021-01-08 05:00:00 -4.6 5 Este 16 Sudeste 0 -- -- 88
2021-01-08 04:00:00 -3.7 4 Sudeste 26 Sudeste 0 -- -- 88
2021-01-08 03:00:00 -3.5 6 Sudoeste 15 Oeste 0 -- -- 88
2021-01-08 02:00:00 -3.5 3 Sudoeste 17 Norte 0 -- -- 89
2021-01-08 01:00:00 -3.4 7 Sudoeste 16 Oeste 0 -- -- 89
2021-01-08 00:00:00 -3 3 Oeste 22 Noroeste 0 -- -- 88
2021-01-07 23:00:00 -2.8 3 Sudoeste 21 Noroeste 0 -- -- 87
2021-01-07 22:00:00 -2.7 6 Noroeste 21 Noroeste 0 -- -- 88
2021-01-07 21:00:00 -2.7 9 Noroeste 26 Norte 0 -- -- 88
2021-01-07 20:00:00 -2.4 8 Noroeste 20 Norte 0 -- -- 90
2021-01-07 19:00:00 -1.9 7 Norte 19 Norte 0 -- -- 90
2021-01-07 18:00:00 -1.8 8 Noroeste 19 Noroeste 0.2 -- -- 87
2021-01-07 17:00:00 0.3 3 Oeste 12 Oeste 0.2 -- -- 76
2021-01-07 16:00:00 1.3 3 Oeste 8 Noroeste 0.2 -- -- 76
2021-01-07 15:00:00 1.1 2 Noroeste 9 Nordeste 0.6 -- -- 78
2021-01-07 14:00:00 1 4 Sudeste 11 Este 1.8 -- -- 76
2021-01-07 13:00:00 -0.1 4 Nordeste 9 Este 0.8 -- -- 84
2021-01-07 12:00:00 -3.9 0 Calma 4 Este 0 -- -- 94
2021-01-07 11:00:00 -5.8 0 Calma 0 Calma 0 -- -- 97
2021-01-07 10:00:00 -10.3 0 Calma -- -- 0 -- -- 94
2021-01-07 09:00:00 -10.7 0 Calma -- -- 0 -- -- 93
2021-01-07 08:00:00 -10.4 0 Calma -- -- 0 -- -- 93
2021-01-07 07:00:00 -10 0 Calma -- -- 0 -- -- 94
2021-01-07 06:00:00 -9.8 0 Calma 0 Calma 0 -- -- 94
2021-01-07 05:00:00 -9.5 0 Calma 2 Norte 0 -- -- 94
2021-01-07 04:00:00 -9.3 0 Calma 2 Nordeste 0 -- -- 94
2021-01-07 03:00:00 -9 0 Calma 2 Nordeste 0 -- -- 94
2021-01-07 02:00:00 -8.6 0 Calma 3 Nordeste 0 -- -- 94
2021-01-07 01:00:00 -8.1 0 Calma 3 Nordeste 0 -- -- 94
2021-01-07 00:00:00 -7.7 0 Calma 3 Nordeste 0 -- -- 94
2021-01-06 23:00:00 -7.4 0 Calma 3 Este 0 -- -- 93
2021-01-06 22:00:00 -6.6 0 Calma 5 Nordeste 0 -- -- 94
2021-01-06 21:00:00 -5.8 0 Calma 4 Este 0 -- -- 92
2021-01-06 20:00:00 -4.6 0 Calma 3 Nordeste 0 -- -- 92
2021-01-06 19:00:00 -3.2 0 Calma 4 Este 0 -- -- 91
2021-01-06 18:00:00 -1.2 0 Calma 5 Noroeste 0.2 -- -- 89
2021-01-06 17:00:00 1.2 0 Calma 10 Noroeste 1.2 -- -- 84
2021-01-06 16:00:00 1.9 6 Oeste 12 Oeste 1.4 -- -- 82
2021-01-06 15:00:00 1.4 4 Norte 12 Noroeste 1.6 -- -- 84
2021-01-06 14:00:00 1.9 6 Noroeste 13 Noroeste 3 -- -- 82
2021-01-06 13:00:00 1.5 5 Noroeste 12 Oeste 3 -- -- 83
2021-01-06 12:00:00 0.3 4 Sudeste 9 Sudeste 0.4 -- -- 88
2021-01-06 11:00:00 -0.9 0 Calma 3 Norte 0 -- -- 96
2021-01-06 10:00:00 -2.3 0 Calma 4 Este 0 -- -- 99
2021-01-06 09:00:00 -2.7 0 Calma 5 Noroeste 0 -- -- 98
2021-01-06 08:00:00 -2.7 2 Este 4 Sudeste 0 -- -- 98
2021-01-06 07:00:00 -2.4 2 Este 4 Sudeste 0 -- -- 98
2021-01-06 06:00:00 -2.1 0 Calma 3 Sudeste 0 -- -- 98
2021-01-06 05:00:00 -1.9 0 Calma 4 Nordeste 0 -- -- 98
2021-01-06 04:00:00 -1.7 0 Calma 3 Este 0 -- -- 99
2021-01-06 03:00:00 -1.8 0 Calma 4 Sudeste 0 -- -- 98
2021-01-06 02:00:00 -2 0 Calma 4 Este 0 -- -- 98
2021-01-06 01:00:00 -2.1 2 Nordeste 5 Nordeste 0 -- -- 97
2021-01-06 00:00:00 -1.8 0 Calma 2 Nordeste 0 -- -- 97
2021-01-05 23:00:00 -1.7 0 Calma 2 Sur 0 -- -- 97
2021-01-05 22:00:00 -1.7 0 Calma 4 Sudoeste 0 -- -- 97
2021-01-05 21:00:00 -1.8 0 Calma 4 Este 0 -- -- 96
2021-01-05 20:00:00 -1.9 0 Calma 5 Norte 0 -- -- 95
2021-01-05 19:00:00 -1.1 3 Nordeste 5 Norte 0.2 -- -- 94
2021-01-05 18:00:00 -0.5 3 Norte 8 Norte 0.4 -- -- 94
2021-01-05 17:00:00 0.5 0 Calma 5 Oeste 1.4 -- -- 90
2021-01-05 16:00:00 0.9 2 Norte 11 Norte 1.6 -- -- 89
2021-01-05 15:00:00 0.7 3 Noroeste 15 Noroeste 1.6 -- -- 87
2021-01-05 14:00:00 0.8 8 Oeste -- -- -- -- -- 86
2021-01-05 13:00:00 -- -- -- -- -- -- -- -- --
2021-01-05 12:00:00 -- -- -- -- -- -- -- -- --
2021-01-05 11:00:00 -- -- -- -- -- -- -- -- --
2021-01-05 10:00:00 -- -- -- -- -- -- -- -- --
2021-01-05 09:00:00 -- -- -- -- -- -- -- -- --
2021-01-05 08:00:00 -- -- -- -- -- -- -- -- --
2021-01-05 07:00:00 -- -- -- -- -- -- -- -- --
2021-01-05 06:00:00 -- -- -- -- -- -- -- -- --
2021-01-05 05:00:00 -- -- -- -- -- -- -- -- --
2021-01-05 04:00:00 -- -- -- -- -- -- -- -- --
2021-01-05 03:00:00 -- -- -- -- -- -- -- -- --
2021-01-05 02:00:00 -- -- -- -- -- -- -- -- --
2021-01-05 01:00:00 -- -- -- -- -- -- -- -- --
2021-01-05 00:00:00 -- -- -- -- -- -- -- -- --
2021-01-04 23:00:00 -- -- -- -- -- -- -- -- --
2021-01-04 22:00:00 -- -- -- -- -- -- -- -- --
2021-01-04 21:00:00 -- -- -- -- -- -- -- -- --
2021-01-04 20:00:00 -- -- -- -- -- -- -- -- --
2021-01-04 19:00:00 -- -- -- -- -- -- -- -- --
2021-01-04 18:00:00 -- -- -- -- -- -- -- -- --
2021-01-04 17:00:00 -- -- -- -- -- -- -- -- --
2021-01-04 16:00:00 -- -- -- -- -- -- -- -- --
2021-01-04 15:00:00 -- -- -- -- -- -- -- -- --
2021-01-04 14:00:00 -- -- -- -- -- -- -- -- --
2021-01-04 13:00:00 -- -- -- -- -- -- -- -- --
2021-01-04 12:00:00 -- -- -- -- -- -- -- -- --
2021-01-04 11:00:00 -- -- -- -- -- -- -- -- --
2021-01-04 10:00:00 -- -- -- -- -- -- -- -- --
2021-01-04 09:00:00 -- -- -- -- -- -- -- -- --
2021-01-04 08:00:00 -- -- -- -- -- -- -- -- --
2021-01-04 07:00:00 -- -- -- -- -- -- -- -- --
2021-01-04 06:00:00 -- -- -- -- -- -- -- -- --
2021-01-04 05:00:00 -- -- -- -- -- -- -- -- --
2021-01-04 04:00:00 -- -- -- -- -- -- -- -- --
2021-01-04 03:00:00 -- -- -- -- -- -- -- -- --
2021-01-04 02:00:00 -- -- -- -- -- -- -- -- --
2021-01-04 01:00:00 -- -- -- -- -- -- -- -- --
2021-01-04 00:00:00 -- -- -- -- -- -- -- -- --
2021-01-03 23:00:00 -- -- -- -- -- -- -- -- --
2021-01-03 22:00:00 -- -- -- -- -- -- -- -- --
2021-01-03 21:00:00 -- -- -- -- -- -- -- -- --
2021-01-03 20:00:00 -- -- -- -- -- -- -- -- --
2021-01-03 19:00:00 -- -- -- -- -- -- -- -- --
2021-01-03 18:00:00 -- -- -- -- -- -- -- -- --
2021-01-03 17:00:00 -- -- -- -- -- -- -- -- --
2021-01-03 16:00:00 -- -- -- -- -- -- -- -- --
2021-01-03 15:00:00 -- -- -- -- -- -- -- -- --
2021-01-03 14:00:00 -- -- -- -- -- -- -- -- --
2021-01-03 13:00:00 -- -- -- -- -- -- -- -- --
2021-01-03 12:00:00 -- -- -- -- -- -- -- -- --
2021-01-03 11:00:00 -- -- -- -- -- -- -- -- --
2021-01-03 10:00:00 -- -- -- -- -- -- -- -- --
2021-01-03 09:00:00 -- -- -- -- -- -- -- -- --
2021-01-03 08:00:00 -- -- -- -- -- -- -- -- --
2021-01-03 07:00:00 -- -- -- -- -- -- -- -- --
2021-01-03 06:00:00 -- -- -- -- -- -- -- -- --
2021-01-03 05:00:00 -- -- -- -- -- -- -- -- --
2021-01-03 04:00:00 -- -- -- -- -- -- -- -- --
2021-01-03 03:00:00 -- -- -- -- -- -- -- -- --
2021-01-03 02:00:00 -- -- -- -- -- -- -- -- --
2021-01-03 01:00:00 -- -- -- -- -- -- -- -- --
2021-01-03 00:00:00 -- -- -- -- -- -- -- -- --
2021-01-02 23:00:00 -- -- -- -- -- -- -- -- --
2021-01-02 22:00:00 -- -- -- -- -- -- -- -- --
2021-01-02 21:00:00 -- -- -- -- -- -- -- -- --
2021-01-02 20:00:00 -- -- -- -- -- -- -- -- --
2021-01-02 19:00:00 -- -- -- -- -- -- -- -- --
2021-01-02 18:00:00 -- -- -- -- -- -- -- -- --
2021-01-02 17:00:00 -- -- -- -- -- -- -- -- --
2021-01-02 16:00:00 -- -- -- -- -- -- -- -- --
2021-01-02 15:00:00 -- -- -- -- -- -- -- -- --
2021-01-02 14:00:00 -- -- -- -- -- -- -- -- --